Pagrindinis puslapis
METAR-TAF:

METAR-TAF

Oro uostai :

Oberpfaffenhofen, Vokietija

platuma: 48-05N, ilguma: 011-17E, Aukštis: 600 m

Dabartinis oras

Ataskaita buvo paskelbta 20 minutes, ne 09:50 UTC
Vėjas 10 kt iš Šiaurės Rytų, svyruoja nuo Šiaurės/Šiaurės Rytų ir Rytų
Temperatūra 12°C
Drėgmė 58%
Slėgis 1028 hPa
Matomumas 10 km arba daugiau
nėra debesų žemiau 1500 m ir nėra kamuolinių lietaus debesų

METAR: EDMO 200950Z 05010KT 030V100 CAVOK 12/04 Q1028

Laikas: 12:10 (10:10 UTC)

Prognozė

Ataskaita buvo paskelbta 2 valandos ir 10 minutes, ne 08:00 UTC
Prognozė galioja nuo 20 metu 09 UTC su 20 metu 18 UTC
Vėjas 6 kt iš Rytų
Matomumas 10 km arba daugiau
nėra debesų žemiau 1500 m ir nėra kamuolinių lietaus debesų

TAF: EDMO 200800Z 2009/2018 08006KT CAVOK

Orai ataskaitas ir orų prognozės (METAR, TAF).

turimą stotys yra geltonos ir raudonos taškus žemėlapyje.

Perkelti pele per norėdami pamatyti stoties vardą.

Tada spustelėkite, norėdami matyti oro stebėjimo ir prognozės.

Norėdami pakeisti žemėlapį: spustelėkite ant žalios mygtukų su juodo kryžiaus žemyn,; žalią mygtuką su brūkšneliu, jei norite nutolinti; arba žalių rodyklių gretimoms žemėlapius.


METAR-TAF: